sensor_id;sensor_type;location;lat;lon;timestamp;P1;durP1;ratioP1;P2;durP2;ratioP2
8337;SDS011;4206;48.634;9.516;2023-03-04T00:01:30;53.37;;;25.87;;
8337;SDS011;4206;48.634;9.516;2023-03-04T00:03:56;42.90;;;22.27;;
8337;SDS011;4206;48.634;9.516;2023-03-04T00:06:23;53.80;;;25.70;;
8337;SDS011;4206;48.634;9.516;2023-03-04T00:08:50;48.13;;;24.37;;
8337;SDS011;4206;48.634;9.516;2023-03-04T00:11:17;49.97;;;23.47;;
8337;SDS011;4206;48.634;9.516;2023-03-04T00:13:44;55.50;;;23.93;;
8337;SDS011;4206;48.634;9.516;2023-03-04T00:16:11;47.73;;;22.60;;
8337;SDS011;4206;48.634;9.516;2023-03-04T00:18:38;41.93;;;21.10;;
8337;SDS011;4206;48.634;9.516;2023-03-04T00:21:05;43.93;;;20.77;;
8337;SDS011;4206;48.634;9.516;2023-03-04T00:23:31;47.03;;;21.97;;
8337;SDS011;4206;48.634;9.516;2023-03-04T00:25:58;48.37;;;22.50;;
8337;SDS011;4206;48.634;9.516;2023-03-04T00:28:25;54.00;;;23.43;;
8337;SDS011;4206;48.634;9.516;2023-03-04T00:30:53;52.27;;;24.30;;
8337;SDS011;4206;48.634;9.516;2023-03-04T00:33:21;51.77;;;22.57;;
8337;SDS011;4206;48.634;9.516;2023-03-04T00:35:47;49.00;;;23.10;;
8337;SDS011;4206;48.634;9.516;2023-03-04T00:38:14;45.53;;;21.20;;
8337;SDS011;4206;48.634;9.516;2023-03-04T00:40:41;45.13;;;20.67;;
8337;SDS011;4206;48.634;9.516;2023-03-04T00:43:08;43.83;;;21.30;;
8337;SDS011;4206;48.634;9.516;2023-03-04T00:45:35;47.43;;;21.37;;
8337;SDS011;4206;48.634;9.516;2023-03-04T00:48:02;43.87;;;20.37;;
8337;SDS011;4206;48.634;9.516;2023-03-04T00:50:29;44.77;;;23.03;;
8337;SDS011;4206;48.634;9.516;2023-03-04T00:52:56;45.73;;;21.80;;
8337;SDS011;4206;48.634;9.516;2023-03-04T00:55:22;46.60;;;21.63;;
8337;SDS011;4206;48.634;9.516;2023-03-04T00:57:49;47.33;;;20.40;;
8337;SDS011;4206;48.634;9.516;2023-03-04T01:00:16;46.60;;;23.00;;
8337;SDS011;4206;48.634;9.516;2023-03-04T01:02:44;43.57;;;22.33;;
8337;SDS011;4206;48.634;9.516;2023-03-04T01:05:10;45.50;;;21.77;;
8337;SDS011;4206;48.634;9.516;2023-03-04T01:07:38;54.73;;;22.47;;
8337;SDS011;4206;48.634;9.516;2023-03-04T01:10:05;44.30;;;21.97;;
8337;SDS011;4206;48.634;9.516;2023-03-04T01:12:33;49.53;;;22.23;;
8337;SDS011;4206;48.634;9.516;2023-03-04T01:15:00;46.47;;;21.40;;
8337;SDS011;4206;48.634;9.516;2023-03-04T01:17:27;58.80;;;24.33;;
8337;SDS011;4206;48.634;9.516;2023-03-04T01:19:54;49.47;;;23.17;;
8337;SDS011;4206;48.634;9.516;2023-03-04T01:22:20;45.10;;;22.77;;
8337;SDS011;4206;48.634;9.516;2023-03-04T01:24:47;45.87;;;22.33;;
8337;SDS011;4206;48.634;9.516;2023-03-04T01:27:14;42.40;;;21.80;;
8337;SDS011;4206;48.634;9.516;2023-03-04T01:29:41;47.47;;;20.60;;
8337;SDS011;4206;48.634;9.516;2023-03-04T01:32:08;49.27;;;21.97;;
8337;SDS011;4206;48.634;9.516;2023-03-04T01:34:35;50.03;;;21.83;;
8337;SDS011;4206;48.634;9.516;2023-03-04T01:37:02;41.60;;;19.93;;
8337;SDS011;4206;48.634;9.516;2023-03-04T01:39:29;44.93;;;20.97;;
8337;SDS011;4206;48.634;9.516;2023-03-04T01:41:56;39.10;;;19.27;;
8337;SDS011;4206;48.634;9.516;2023-03-04T01:44:23;46.00;;;19.73;;
8337;SDS011;4206;48.634;9.516;2023-03-04T01:46:51;45.40;;;21.63;;
8337;SDS011;4206;48.634;9.516;2023-03-04T01:49:20;45.30;;;21.67;;
8337;SDS011;4206;48.634;9.516;2023-03-04T01:51:48;48.57;;;22.07;;
8337;SDS011;4206;48.634;9.516;2023-03-04T01:54:17;44.20;;;21.97;;
8337;SDS011;4206;48.634;9.516;2023-03-04T01:56:46;41.63;;;21.80;;
8337;SDS011;4206;48.634;9.516;2023-03-04T02:01:45;46.03;;;20.93;;
8337;SDS011;4206;48.634;9.516;2023-03-04T02:04:14;51.53;;;23.30;;
8337;SDS011;4206;48.634;9.516;2023-03-04T02:06:43;46.67;;;20.37;;
8337;SDS011;4206;48.634;9.516;2023-03-04T02:09:12;47.47;;;22.83;;
8337;SDS011;4206;48.634;9.516;2023-03-04T02:11:40;44.20;;;22.57;;
8337;SDS011;4206;48.634;9.516;2023-03-04T02:14:08;54.47;;;23.53;;
8337;SDS011;4206;48.634;9.516;2023-03-04T02:16:36;49.90;;;23.60;;
8337;SDS011;4206;48.634;9.516;2023-03-04T02:19:04;47.27;;;20.17;;
8337;SDS011;4206;48.634;9.516;2023-03-04T02:21:39;46.40;;;21.37;;
8337;SDS011;4206;48.634;9.516;2023-03-04T02:26:54;43.57;;;21.60;;
8337;SDS011;4206;48.634;9.516;2023-03-04T02:29:21;44.63;;;22.17;;
8337;SDS011;4206;48.634;9.516;2023-03-04T02:31:48;50.17;;;23.70;;
8337;SDS011;4206;48.634;9.516;2023-03-04T02:34:20;53.17;;;23.60;;
8337;SDS011;4206;48.634;9.516;2023-03-04T02:36:50;55.87;;;25.77;;
8337;SDS011;4206;48.634;9.516;2023-03-04T02:41:46;57.33;;;24.80;;
8337;SDS011;4206;48.634;9.516;2023-03-04T02:44:16;58.37;;;24.80;;
8337;SDS011;4206;48.634;9.516;2023-03-04T02:46:44;49.67;;;23.60;;
8337;SDS011;4206;48.634;9.516;2023-03-04T02:49:12;50.63;;;22.23;;
8337;SDS011;4206;48.634;9.516;2023-03-04T02:51:41;49.97;;;22.00;;
8337;SDS011;4206;48.634;9.516;2023-03-04T02:54:16;40.47;;;20.20;;
8337;SDS011;4206;48.634;9.516;2023-03-04T02:56:45;47.57;;;21.70;;
8337;SDS011;4206;48.634;9.516;2023-03-04T02:59:13;44.80;;;21.47;;
8337;SDS011;4206;48.634;9.516;2023-03-04T03:01:40;47.17;;;21.00;;
8337;SDS011;4206;48.634;9.516;2023-03-04T03:04:07;43.47;;;21.30;;
8337;SDS011;4206;48.634;9.516;2023-03-04T03:06:35;53.83;;;23.03;;
8337;SDS011;4206;48.634;9.516;2023-03-04T03:09:02;52.47;;;23.40;;
8337;SDS011;4206;48.634;9.516;2023-03-04T03:11:29;42.07;;;20.43;;
8337;SDS011;4206;48.634;9.516;2023-03-04T03:13:56;50.23;;;23.30;;
8337;SDS011;4206;48.634;9.516;2023-03-04T03:16:23;53.60;;;22.70;;
8337;SDS011;4206;48.634;9.516;2023-03-04T03:18:50;46.87;;;21.97;;
8337;SDS011;4206;48.634;9.516;2023-03-04T03:21:17;45.30;;;21.47;;
8337;SDS011;4206;48.634;9.516;2023-03-04T03:23:44;48.80;;;23.10;;
8337;SDS011;4206;48.634;9.516;2023-03-04T03:26:11;46.43;;;23.27;;
8337;SDS011;4206;48.634;9.516;2023-03-04T03:28:38;55.63;;;24.63;;
8337;SDS011;4206;48.634;9.516;2023-03-04T03:31:04;44.50;;;21.10;;
8337;SDS011;4206;48.634;9.516;2023-03-04T03:33:32;48.67;;;21.93;;
8337;SDS011;4206;48.634;9.516;2023-03-04T03:35:59;52.23;;;22.70;;
8337;SDS011;4206;48.634;9.516;2023-03-04T03:38:26;51.97;;;23.80;;
8337;SDS011;4206;48.634;9.516;2023-03-04T03:40:53;46.47;;;22.33;;
8337;SDS011;4206;48.634;9.516;2023-03-04T03:43:20;50.07;;;22.67;;
8337;SDS011;4206;48.634;9.516;2023-03-04T03:45:47;49.57;;;22.77;;
8337;SDS011;4206;48.634;9.516;2023-03-04T03:48:13;44.00;;;21.53;;
8337;SDS011;4206;48.634;9.516;2023-03-04T03:50:40;48.07;;;22.27;;
8337;SDS011;4206;48.634;9.516;2023-03-04T03:53:07;47.70;;;23.37;;
8337;SDS011;4206;48.634;9.516;2023-03-04T03:55:34;48.67;;;23.57;;
8337;SDS011;4206;48.634;9.516;2023-03-04T03:58:01;57.00;;;24.23;;
8337;SDS011;4206;48.634;9.516;2023-03-04T05:01:03;54.13;;;23.80;;
8337;SDS011;4206;48.634;9.516;2023-03-04T05:03:31;57.50;;;24.33;;
8337;SDS011;4206;48.634;9.516;2023-03-04T05:05:59;64.87;;;26.40;;
8337;SDS011;4206;48.634;9.516;2023-03-04T05:08:26;65.03;;;26.67;;
8337;SDS011;4206;48.634;9.516;2023-03-04T05:10:53;57.13;;;26.17;;
8337;SDS011;4206;48.634;9.516;2023-03-04T05:13:20;49.70;;;23.03;;
8337;SDS011;4206;48.634;9.516;2023-03-04T05:15:49;60.27;;;26.30;;
8337;SDS011;4206;48.634;9.516;2023-03-04T05:18:18;55.63;;;26.20;;
8337;SDS011;4206;48.634;9.516;2023-03-04T05:20:49;53.37;;;25.57;;
8337;SDS011;4206;48.634;9.516;2023-03-04T05:23:18;60.60;;;27.97;;
8337;SDS011;4206;48.634;9.516;2023-03-04T05:25:46;64.00;;;31.23;;
8337;SDS011;4206;48.634;9.516;2023-03-04T05:28:13;76.97;;;31.00;;
8337;SDS011;4206;48.634;9.516;2023-03-04T05:30:41;65.77;;;28.70;;
8337;SDS011;4206;48.634;9.516;2023-03-04T05:33:09;87.03;;;37.10;;
8337;SDS011;4206;48.634;9.516;2023-03-04T05:35:37;156.17;;;69.40;;
8337;SDS011;4206;48.634;9.516;2023-03-04T05:38:06;175.37;;;67.87;;
8337;SDS011;4206;48.634;9.516;2023-03-04T05:40:34;169.00;;;66.97;;
8337;SDS011;4206;48.634;9.516;2023-03-04T05:43:02;111.20;;;47.97;;
8337;SDS011;4206;48.634;9.516;2023-03-04T05:45:29;93.87;;;41.10;;
8337;SDS011;4206;48.634;9.516;2023-03-04T05:47:56;77.47;;;32.27;;
8337;SDS011;4206;48.634;9.516;2023-03-04T05:50:23;69.60;;;31.70;;
8337;SDS011;4206;48.634;9.516;2023-03-04T05:52:50;65.23;;;28.20;;
8337;SDS011;4206;48.634;9.516;2023-03-04T05:55:17;57.77;;;27.43;;
8337;SDS011;4206;48.634;9.516;2023-03-04T05:57:48;52.73;;;25.70;;
8337;SDS011;4206;48.634;9.516;2023-03-04T06:00:18;60.53;;;25.27;;
8337;SDS011;4206;48.634;9.516;2023-03-04T06:02:45;57.50;;;24.20;;
8337;SDS011;4206;48.634;9.516;2023-03-04T06:05:13;60.37;;;25.90;;
8337;SDS011;4206;48.634;9.516;2023-03-04T06:07:40;52.70;;;23.50;;
8337;SDS011;4206;48.634;9.516;2023-03-04T06:10:10;72.63;;;27.83;;
8337;SDS011;4206;48.634;9.516;2023-03-04T06:12:38;61.30;;;27.10;;
8337;SDS011;4206;48.634;9.516;2023-03-04T06:15:06;61.53;;;25.23;;
8337;SDS011;4206;48.634;9.516;2023-03-04T06:17:35;58.20;;;26.10;;
8337;SDS011;4206;48.634;9.516;2023-03-04T06:20:06;63.70;;;27.93;;
8337;SDS011;4206;48.634;9.516;2023-03-04T06:22:34;188.33;;;77.20;;
8337;SDS011;4206;48.634;9.516;2023-03-04T06:25:01;251.57;;;98.20;;
8337;SDS011;4206;48.634;9.516;2023-03-04T06:27:28;154.63;;;55.60;;
8337;SDS011;4206;48.634;9.516;2023-03-04T06:29:56;85.03;;;36.40;;
8337;SDS011;4206;48.634;9.516;2023-03-04T06:32:23;79.23;;;35.60;;
8337;SDS011;4206;48.634;9.516;2023-03-04T06:34:50;123.00;;;56.27;;
8337;SDS011;4206;48.634;9.516;2023-03-04T06:37:17;146.53;;;67.07;;
8337;SDS011;4206;48.634;9.516;2023-03-04T06:39:44;105.20;;;43.90;;
8337;SDS011;4206;48.634;9.516;2023-03-04T06:42:11;91.93;;;50.03;;
8337;SDS011;4206;48.634;9.516;2023-03-04T06:44:39;74.00;;;38.87;;
8337;SDS011;4206;48.634;9.516;2023-03-04T06:47:06;65.60;;;30.00;;
8337;SDS011;4206;48.634;9.516;2023-03-04T06:49:33;64.17;;;28.83;;
8337;SDS011;4206;48.634;9.516;2023-03-04T06:52:00;61.67;;;28.60;;
8337;SDS011;4206;48.634;9.516;2023-03-04T06:54:27;68.17;;;30.50;;
8337;SDS011;4206;48.634;9.516;2023-03-04T06:56:54;67.10;;;32.00;;
8337;SDS011;4206;48.634;9.516;2023-03-04T06:59:21;68.83;;;31.73;;
8337;SDS011;4206;48.634;9.516;2023-03-04T07:01:48;65.97;;;26.90;;
8337;SDS011;4206;48.634;9.516;2023-03-04T07:04:15;56.67;;;26.20;;
8337;SDS011;4206;48.634;9.516;2023-03-04T07:06:42;73.40;;;32.57;;
8337;SDS011;4206;48.634;9.516;2023-03-04T07:09:09;65.40;;;30.90;;
8337;SDS011;4206;48.634;9.516;2023-03-04T07:11:36;65.87;;;31.50;;
8337;SDS011;4206;48.634;9.516;2023-03-04T07:14:02;73.00;;;31.43;;
8337;SDS011;4206;48.634;9.516;2023-03-04T07:16:29;65.47;;;29.97;;
8337;SDS011;4206;48.634;9.516;2023-03-04T07:18:56;68.90;;;32.80;;
8337;SDS011;4206;48.634;9.516;2023-03-04T07:21:23;63.37;;;29.50;;
8337;SDS011;4206;48.634;9.516;2023-03-04T07:23:51;63.80;;;29.37;;
8337;SDS011;4206;48.634;9.516;2023-03-04T07:26:18;66.57;;;31.10;;
8337;SDS011;4206;48.634;9.516;2023-03-04T07:28:46;67.83;;;31.20;;
8337;SDS011;4206;48.634;9.516;2023-03-04T07:31:22;60.57;;;31.30;;
8337;SDS011;4206;48.634;9.516;2023-03-04T07:33:50;74.43;;;31.80;;
8337;SDS011;4206;48.634;9.516;2023-03-04T07:36:17;66.00;;;31.97;;
8337;SDS011;4206;48.634;9.516;2023-03-04T07:38:45;73.73;;;34.33;;
8337;SDS011;4206;48.634;9.516;2023-03-04T07:41:13;63.57;;;30.20;;
8337;SDS011;4206;48.634;9.516;2023-03-04T07:43:40;61.37;;;30.30;;
8337;SDS011;4206;48.634;9.516;2023-03-04T07:46:08;57.00;;;28.60;;
8337;SDS011;4206;48.634;9.516;2023-03-04T07:48:38;62.50;;;31.57;;
8337;SDS011;4206;48.634;9.516;2023-03-04T07:51:07;59.70;;;28.37;;
8337;SDS011;4206;48.634;9.516;2023-03-04T07:53:37;57.13;;;28.67;;
8337;SDS011;4206;48.634;9.516;2023-03-04T07:56:09;53.57;;;28.97;;
8337;SDS011;4206;48.634;9.516;2023-03-04T07:58:39;71.57;;;34.60;;
8337;SDS011;4206;48.634;9.516;2023-03-04T08:01:08;63.27;;;29.47;;
8337;SDS011;4206;48.634;9.516;2023-03-04T08:03:37;60.00;;;30.63;;
8337;SDS011;4206;48.634;9.516;2023-03-04T08:06:05;61.30;;;29.60;;
8337;SDS011;4206;48.634;9.516;2023-03-04T08:08:33;59.17;;;27.17;;
8337;SDS011;4206;48.634;9.516;2023-03-04T08:11:04;56.43;;;27.00;;
8337;SDS011;4206;48.634;9.516;2023-03-04T08:13:33;56.17;;;29.07;;
8337;SDS011;4206;48.634;9.516;2023-03-04T08:16:01;69.60;;;29.47;;
8337;SDS011;4206;48.634;9.516;2023-03-04T08:18:29;61.00;;;27.50;;
8337;SDS011;4206;48.634;9.516;2023-03-04T08:20:56;60.30;;;27.77;;
8337;SDS011;4206;48.634;9.516;2023-03-04T08:23:23;57.20;;;27.37;;
8337;SDS011;4206;48.634;9.516;2023-03-04T08:25:50;52.00;;;25.87;;
8337;SDS011;4206;48.634;9.516;2023-03-04T08:28:17;50.23;;;24.03;;
8337;SDS011;4206;48.634;9.516;2023-03-04T08:30:44;55.53;;;25.20;;
8337;SDS011;4206;48.634;9.516;2023-03-04T08:33:11;54.80;;;26.30;;
8337;SDS011;4206;48.634;9.516;2023-03-04T08:35:38;53.57;;;26.30;;
8337;SDS011;4206;48.634;9.516;2023-03-04T08:38:05;50.50;;;24.57;;
8337;SDS011;4206;48.634;9.516;2023-03-04T08:40:32;55.03;;;24.30;;
8337;SDS011;4206;48.634;9.516;2023-03-04T08:42:59;58.57;;;24.83;;
8337;SDS011;4206;48.634;9.516;2023-03-04T08:45:26;54.20;;;23.90;;
8337;SDS011;4206;48.634;9.516;2023-03-04T08:47:53;48.10;;;23.20;;
8337;SDS011;4206;48.634;9.516;2023-03-04T08:50:20;47.27;;;22.47;;
8337;SDS011;4206;48.634;9.516;2023-03-04T08:52:47;52.97;;;24.10;;
8337;SDS011;4206;48.634;9.516;2023-03-04T08:55:14;51.17;;;24.40;;
8337;SDS011;4206;48.634;9.516;2023-03-04T08:57:41;48.20;;;23.13;;
8337;SDS011;4206;48.634;9.516;2023-03-04T09:00:09;49.43;;;23.53;;
8337;SDS011;4206;48.634;9.516;2023-03-04T09:02:37;49.00;;;22.40;;
8337;SDS011;4206;48.634;9.516;2023-03-04T09:05:04;49.50;;;20.87;;
8337;SDS011;4206;48.634;9.516;2023-03-04T09:07:31;48.70;;;20.87;;
8337;SDS011;4206;48.634;9.516;2023-03-04T09:09:58;45.40;;;20.27;;
8337;SDS011;4206;48.634;9.516;2023-03-04T09:12:25;46.50;;;22.10;;
8337;SDS011;4206;48.634;9.516;2023-03-04T09:14:52;42.00;;;19.63;;
8337;SDS011;4206;48.634;9.516;2023-03-04T09:17:36;49.63;;;22.90;;
8337;SDS011;4206;48.634;9.516;2023-03-04T09:20:03;47.07;;;20.73;;
8337;SDS011;4206;48.634;9.516;2023-03-04T09:22:31;44.03;;;20.17;;
8337;SDS011;4206;48.634;9.516;2023-03-04T09:24:58;48.43;;;21.73;;
8337;SDS011;4206;48.634;9.516;2023-03-04T09:27:25;51.63;;;24.13;;
8337;SDS011;4206;48.634;9.516;2023-03-04T09:29:52;53.60;;;22.17;;
8337;SDS011;4206;48.634;9.516;2023-03-04T09:32:19;50.87;;;24.20;;
8337;SDS011;4206;48.634;9.516;2023-03-04T09:34:46;52.83;;;22.30;;
8337;SDS011;4206;48.634;9.516;2023-03-04T09:37:13;50.53;;;22.30;;
8337;SDS011;4206;48.634;9.516;2023-03-04T09:39:40;47.77;;;21.30;;
8337;SDS011;4206;48.634;9.516;2023-03-04T09:42:07;45.57;;;19.60;;
8337;SDS011;4206;48.634;9.516;2023-03-04T09:44:36;41.40;;;19.97;;
8337;SDS011;4206;48.634;9.516;2023-03-04T09:47:08;43.87;;;19.37;;
8337;SDS011;4206;48.634;9.516;2023-03-04T09:49:40;42.03;;;20.27;;
8337;SDS011;4206;48.634;9.516;2023-03-04T10:05:38;51.13;;;22.83;;
8337;SDS011;4206;48.634;9.516;2023-03-04T10:11:12;35.03;;;17.23;;
8337;SDS011;4206;48.634;9.516;2023-03-04T10:13:49;41.37;;;18.87;;
8337;SDS011;4206;48.634;9.516;2023-03-04T10:16:22;40.47;;;18.43;;
8337;SDS011;4206;48.634;9.516;2023-03-04T10:18:55;40.40;;;17.80;;
8337;SDS011;4206;48.634;9.516;2023-03-04T10:21:29;41.27;;;17.67;;
8337;SDS011;4206;48.634;9.516;2023-03-04T10:24:10;36.77;;;17.30;;
8337;SDS011;4206;48.634;9.516;2023-03-04T10:26:41;41.43;;;19.17;;
8337;SDS011;4206;48.634;9.516;2023-03-04T10:29:13;38.73;;;18.10;;
8337;SDS011;4206;48.634;9.516;2023-03-04T10:31:43;40.73;;;18.90;;
8337;SDS011;4206;48.634;9.516;2023-03-04T10:34:11;39.93;;;19.50;;
8337;SDS011;4206;48.634;9.516;2023-03-04T10:36:46;38.10;;;17.93;;
8337;SDS011;4206;48.634;9.516;2023-03-04T10:39:18;47.17;;;18.57;;
8337;SDS011;4206;48.634;9.516;2023-03-04T10:44:32;42.53;;;20.23;;
8337;SDS011;4206;48.634;9.516;2023-03-04T10:47:00;53.10;;;19.83;;
8337;SDS011;4206;48.634;9.516;2023-03-04T10:49:27;48.37;;;18.90;;
8337;SDS011;4206;48.634;9.516;2023-03-04T10:52:11;38.13;;;18.43;;
8337;SDS011;4206;48.634;9.516;2023-03-04T10:57:17;38.73;;;17.97;;
8337;SDS011;4206;48.634;9.516;2023-03-04T11:02:44;37.73;;;19.27;;
8337;SDS011;4206;48.634;9.516;2023-03-04T11:07:58;40.13;;;19.07;;
8337;SDS011;4206;48.634;9.516;2023-03-04T11:10:29;43.03;;;19.13;;
8337;SDS011;4206;48.634;9.516;2023-03-04T11:15:26;43.80;;;18.53;;
8337;SDS011;4206;48.634;9.516;2023-03-04T11:17:58;35.57;;;18.30;;
8337;SDS011;4206;48.634;9.516;2023-03-04T11:20:32;35.73;;;17.73;;
8337;SDS011;4206;48.634;9.516;2023-03-04T11:23:05;45.33;;;19.23;;
8337;SDS011;4206;48.634;9.516;2023-03-04T11:25:43;35.83;;;17.10;;
8337;SDS011;4206;48.634;9.516;2023-03-04T11:28:17;36.20;;;18.40;;
8337;SDS011;4206;48.634;9.516;2023-03-04T11:30:49;37.50;;;17.70;;
8337;SDS011;4206;48.634;9.516;2023-03-04T11:33:21;37.57;;;18.10;;
8337;SDS011;4206;48.634;9.516;2023-03-04T11:35:53;39.33;;;19.07;;
8337;SDS011;4206;48.634;9.516;2023-03-04T11:38:31;36.53;;;17.23;;
8337;SDS011;4206;48.634;9.516;2023-03-04T11:41:03;28.60;;;16.10;;
8337;SDS011;4206;48.634;9.516;2023-03-04T11:43:37;36.30;;;17.67;;
8337;SDS011;4206;48.634;9.516;2023-03-04T11:49:08;35.70;;;17.20;;
8337;SDS011;4206;48.634;9.516;2023-03-04T11:51:44;38.27;;;16.40;;
8337;SDS011;4206;48.634;9.516;2023-03-04T11:54:23;35.00;;;17.33;;
8337;SDS011;4206;48.634;9.516;2023-03-04T11:57:11;32.60;;;15.90;;
8337;SDS011;4206;48.634;9.516;2023-03-04T12:11:04;34.27;;;17.00;;
8337;SDS011;4206;48.634;9.516;2023-03-04T12:19:05;30.40;;;15.90;;
8337;SDS011;4206;48.634;9.516;2023-03-04T12:29:49;30.80;;;15.30;;
8337;SDS011;4206;48.634;9.516;2023-03-04T12:35:08;27.50;;;16.00;;
8337;SDS011;4206;48.634;9.516;2023-03-04T12:37:59;33.00;;;15.90;;
8337;SDS011;4206;48.634;9.516;2023-03-04T12:46:45;33.40;;;17.50;;
8337;SDS011;4206;48.634;9.516;2023-03-04T12:55:01;34.83;;;17.13;;
8337;SDS011;4206;48.634;9.516;2023-03-04T12:57:29;34.23;;;18.83;;
8337;SDS011;4206;48.634;9.516;2023-03-04T13:05:41;37.97;;;19.77;;
8337;SDS011;4206;48.634;9.516;2023-03-04T13:14:05;38.23;;;17.90;;
8337;SDS011;4206;48.634;9.516;2023-03-04T13:24:55;39.07;;;20.20;;
8337;SDS011;4206;48.634;9.516;2023-03-04T13:32:58;45.23;;;24.27;;
8337;SDS011;4206;48.634;9.516;2023-03-04T13:43:48;41.20;;;22.27;;
8337;SDS011;4206;48.634;9.516;2023-03-04T13:49:18;42.87;;;22.37;;
8337;SDS011;4206;48.634;9.516;2023-03-04T13:51:49;43.63;;;22.90;;
8337;SDS011;4206;48.634;9.516;2023-03-04T13:56:46;43.90;;;24.20;;
8337;SDS011;4206;48.634;9.516;2023-03-04T14:04:56;43.13;;;23.97;;
8337;SDS011;4206;48.634;9.516;2023-03-04T14:07:25;49.37;;;25.40;;
8337;SDS011;4206;48.634;9.516;2023-03-04T14:09:57;45.57;;;24.50;;
8337;SDS011;4206;48.634;9.516;2023-03-04T14:12:28;49.17;;;25.33;;
8337;SDS011;4206;48.634;9.516;2023-03-04T14:14:58;52.07;;;26.83;;
8337;SDS011;4206;48.634;9.516;2023-03-04T14:17:30;47.73;;;25.50;;
8337;SDS011;4206;48.634;9.516;2023-03-04T14:20:00;51.63;;;25.57;;
8337;SDS011;4206;48.634;9.516;2023-03-04T14:22:29;43.97;;;24.60;;
8337;SDS011;4206;48.634;9.516;2023-03-04T14:25:00;51.87;;;25.80;;
8337;SDS011;4206;48.634;9.516;2023-03-04T14:27:31;52.10;;;26.20;;
8337;SDS011;4206;48.634;9.516;2023-03-04T14:30:02;44.37;;;22.20;;
8337;SDS011;4206;48.634;9.516;2023-03-04T14:32:32;49.80;;;26.63;;
8337;SDS011;4206;48.634;9.516;2023-03-04T14:35:02;52.27;;;26.63;;
8337;SDS011;4206;48.634;9.516;2023-03-04T14:40:23;52.17;;;28.07;;
8337;SDS011;4206;48.634;9.516;2023-03-04T14:42:55;47.77;;;24.03;;
8337;SDS011;4206;48.634;9.516;2023-03-04T14:45:26;48.80;;;26.37;;
8337;SDS011;4206;48.634;9.516;2023-03-04T14:47:56;52.50;;;26.90;;
8337;SDS011;4206;48.634;9.516;2023-03-04T14:50:26;50.00;;;24.67;;
8337;SDS011;4206;48.634;9.516;2023-03-04T14:55:36;50.77;;;25.17;;
8337;SDS011;4206;48.634;9.516;2023-03-04T14:58:07;54.73;;;27.47;;
8337;SDS011;4206;48.634;9.516;2023-03-04T15:00:36;51.97;;;27.73;;
8337;SDS011;4206;48.634;9.516;2023-03-04T15:03:14;44.70;;;24.50;;
8337;SDS011;4206;48.634;9.516;2023-03-04T15:05:44;51.23;;;26.20;;
8337;SDS011;4206;48.634;9.516;2023-03-04T15:10:57;44.87;;;22.50;;
8337;SDS011;4206;48.634;9.516;2023-03-04T15:16:10;40.70;;;21.83;;
8337;SDS011;4206;48.634;9.516;2023-03-04T15:18:52;44.20;;;21.70;;
8337;SDS011;4206;48.634;9.516;2023-03-04T15:24:07;43.33;;;21.43;;
8337;SDS011;4206;48.634;9.516;2023-03-04T15:26:37;38.33;;;19.47;;
8337;SDS011;4206;48.634;9.516;2023-03-04T15:29:10;43.77;;;19.70;;
8337;SDS011;4206;48.634;9.516;2023-03-04T15:31:38;37.23;;;19.13;;
8337;SDS011;4206;48.634;9.516;2023-03-04T15:34:09;36.80;;;19.47;;
8337;SDS011;4206;48.634;9.516;2023-03-04T15:36:38;33.97;;;18.30;;
8337;SDS011;4206;48.634;9.516;2023-03-04T15:39:05;34.53;;;18.00;;
8337;SDS011;4206;48.634;9.516;2023-03-04T15:41:38;35.77;;;16.23;;
8337;SDS011;4206;48.634;9.516;2023-03-04T15:44:05;35.37;;;17.00;;
8337;SDS011;4206;48.634;9.516;2023-03-04T15:46:32;30.10;;;16.97;;
8337;SDS011;4206;48.634;9.516;2023-03-04T15:48:59;31.43;;;17.10;;
8337;SDS011;4206;48.634;9.516;2023-03-04T15:51:26;28.87;;;15.37;;
8337;SDS011;4206;48.634;9.516;2023-03-04T15:53:54;32.50;;;16.37;;
8337;SDS011;4206;48.634;9.516;2023-03-04T15:56:23;31.17;;;15.57;;
8337;SDS011;4206;48.634;9.516;2023-03-04T15:58:56;35.60;;;16.50;;
8337;SDS011;4206;48.634;9.516;2023-03-04T16:01:26;33.80;;;17.50;;
8337;SDS011;4206;48.634;9.516;2023-03-04T16:03:53;33.17;;;16.60;;
8337;SDS011;4206;48.634;9.516;2023-03-04T16:06:28;36.50;;;16.80;;
8337;SDS011;4206;48.634;9.516;2023-03-04T16:08:57;40.73;;;16.40;;
8337;SDS011;4206;48.634;9.516;2023-03-04T16:11:25;32.10;;;17.73;;
8337;SDS011;4206;48.634;9.516;2023-03-04T16:13:54;37.00;;;17.50;;
8337;SDS011;4206;48.634;9.516;2023-03-04T16:16:21;41.40;;;18.67;;
8337;SDS011;4206;48.634;9.516;2023-03-04T16:18:48;30.63;;;16.67;;
8337;SDS011;4206;48.634;9.516;2023-03-04T16:21:16;29.70;;;16.70;;
8337;SDS011;4206;48.634;9.516;2023-03-04T16:23:45;37.23;;;17.97;;
8337;SDS011;4206;48.634;9.516;2023-03-04T16:26:14;28.20;;;15.03;;
8337;SDS011;4206;48.634;9.516;2023-03-04T16:28:43;34.47;;;17.00;;
8337;SDS011;4206;48.634;9.516;2023-03-04T16:31:10;39.07;;;18.30;;
8337;SDS011;4206;48.634;9.516;2023-03-04T16:33:38;40.07;;;18.67;;
8337;SDS011;4206;48.634;9.516;2023-03-04T16:38:50;33.80;;;18.07;;
8337;SDS011;4206;48.634;9.516;2023-03-04T16:41:21;33.83;;;17.87;;
8337;SDS011;4206;48.634;9.516;2023-03-04T16:43:52;42.63;;;18.10;;
8337;SDS011;4206;48.634;9.516;2023-03-04T16:46:22;31.60;;;18.13;;
8337;SDS011;4206;48.634;9.516;2023-03-04T16:48:49;39.13;;;19.53;;
8337;SDS011;4206;48.634;9.516;2023-03-04T16:51:17;34.13;;;17.17;;
8337;SDS011;4206;48.634;9.516;2023-03-04T16:53:46;32.87;;;16.93;;
8337;SDS011;4206;48.634;9.516;2023-03-04T16:56:18;32.73;;;16.90;;
8337;SDS011;4206;48.634;9.516;2023-03-04T16:58:45;33.33;;;16.13;;
8337;SDS011;4206;48.634;9.516;2023-03-04T17:01:15;44.53;;;16.50;;
8337;SDS011;4206;48.634;9.516;2023-03-04T17:03:45;35.37;;;17.17;;
8337;SDS011;4206;48.634;9.516;2023-03-04T17:06:12;30.60;;;15.17;;
8337;SDS011;4206;48.634;9.516;2023-03-04T17:08:40;32.13;;;15.80;;
8337;SDS011;4206;48.634;9.516;2023-03-04T17:11:10;37.93;;;16.63;;
8337;SDS011;4206;48.634;9.516;2023-03-04T17:13:40;39.67;;;16.60;;
8337;SDS011;4206;48.634;9.516;2023-03-04T17:16:09;34.70;;;15.47;;
8337;SDS011;4206;48.634;9.516;2023-03-04T17:18:37;32.70;;;16.17;;
8337;SDS011;4206;48.634;9.516;2023-03-04T17:21:05;34.43;;;16.43;;
8337;SDS011;4206;48.634;9.516;2023-03-04T17:23:34;34.97;;;16.47;;
8337;SDS011;4206;48.634;9.516;2023-03-04T17:26:00;31.33;;;15.40;;
8337;SDS011;4206;48.634;9.516;2023-03-04T17:28:28;31.27;;;15.47;;
8337;SDS011;4206;48.634;9.516;2023-03-04T17:30:55;29.73;;;15.53;;
8337;SDS011;4206;48.634;9.516;2023-03-04T17:33:22;28.40;;;13.70;;
8337;SDS011;4206;48.634;9.516;2023-03-04T17:35:49;29.30;;;13.50;;
8337;SDS011;4206;48.634;9.516;2023-03-04T17:38:16;30.83;;;14.40;;
8337;SDS011;4206;48.634;9.516;2023-03-04T17:40:46;25.10;;;14.10;;
8337;SDS011;4206;48.634;9.516;2023-03-04T17:43:13;28.50;;;13.97;;
8337;SDS011;4206;48.634;9.516;2023-03-04T17:45:40;33.63;;;14.67;;
8337;SDS011;4206;48.634;9.516;2023-03-04T17:48:08;34.17;;;14.70;;
8337;SDS011;4206;48.634;9.516;2023-03-04T17:50:48;36.50;;;16.07;;
8337;SDS011;4206;48.634;9.516;2023-03-04T17:53:16;36.77;;;18.60;;
8337;SDS011;4206;48.634;9.516;2023-03-04T17:55:52;38.83;;;17.60;;
8337;SDS011;4206;48.634;9.516;2023-03-04T17:58:20;41.60;;;19.20;;
8337;SDS011;4206;48.634;9.516;2023-03-04T18:00:49;42.93;;;18.70;;
8337;SDS011;4206;48.634;9.516;2023-03-04T18:03:18;40.70;;;15.40;;
8337;SDS011;4206;48.634;9.516;2023-03-04T18:05:45;39.43;;;15.43;;
8337;SDS011;4206;48.634;9.516;2023-03-04T18:08:12;30.27;;;15.80;;
8337;SDS011;4206;48.634;9.516;2023-03-04T18:10:39;32.90;;;15.37;;
8337;SDS011;4206;48.634;9.516;2023-03-04T18:13:09;33.57;;;16.07;;
8337;SDS011;4206;48.634;9.516;2023-03-04T18:15:36;31.40;;;15.40;;
8337;SDS011;4206;48.634;9.516;2023-03-04T18:18:02;33.40;;;14.30;;
8337;SDS011;4206;48.634;9.516;2023-03-04T18:20:30;32.40;;;14.43;;